Impacts TAF Board INFO
FOR SITUATIONAL AWARENESS. NOT TO BE USED FOR FLIGHT PLANNING PURPOSES.
IDs:

KMCO - Orlando Intl, FL, US

Issued at 0256 UTC 20 Feb 2018
Updated at 0344 UTC 20 Feb 2018
Potential Impact None Slight Moderate High
Time<<21/04Z 21/05Z 21/06Z 21/07Z 21/08Z 21/09Z 21/10Z 21/11Z 21/12Z 21/13Z 21/14Z 21/15Z 21/16Z
Type PRVL PRVL
VIS >6 >6
CIG 50 50
Cover BKN BKN
FltCat VFR VFR
WX -- --
WDir 110 110
WSpd 11 11
WGst -- --

Raw TAF
KMCO 200256Z 2003/2106 10008KT P6SM FEW025 FEW060
  FM200600 08005KT P6SM SCT015 SCT040
  FM201500 12011KT P6SM SCT030
  FM202000 11011KT P6SM SCT035 BKN050


METAR Board
Radar Display
Forecast Discussion

FOR SITUATIONAL AWARENESS. NOT TO BE USED FOR FLIGHT PLANNING PURPOSES.